Ncc Rabigh — HZQA — position and weather

sailwx.info

Track history (hours):
 
Tides and Currents Weather Stations Pressure Air Temp Water Temp Dewpoint Dewpoint Depression Visibility Wind Speed Wind Dir Waves Ship Positions

Ncc Rabigh

Last reported at 2017-Nov-11 00:02 UTC. Time now 2017-Nov-21 00:55 UTC.
Position N 01°18' E 103°20'.
Warning: this ship's position is 10 days out of date.

Length 183 m; draft 9 m.

Type: Ship (hazmat cat D). MMSI: 403575000.

Date/timePositionNaut miles runAvg speedWind from/ knotsBaromVisibWave heightAir tempDewpointWater temp
2017-Nov-11 00:02N 01°18' E 103°20'113.8
2017-Nov-10 23:59N 01°17' E 103°21'713.4
2017-Nov-10 23:29N 01°14' E 103°27'714.2
2017-Nov-10 23:00N 01°12' E 103°33'510.8
2017-Nov-10 22:30N 01°12' E 103°38'3 6.0
2017-Nov-10 21:57N 01°11' E 103°42'0 0.0
2017-Nov-10 21:30N 01°11' E 103°42'0 0.1
2017-Nov-10 21:00N 01°11' E 103°42'0 0.1
2017-Nov-10 20:30N 01°11' E 103°42'0 0.0
2017-Nov-10 19:57N 01°11' E 103°42'0 0.1
2017-Nov-10 19:30N 01°11' E 103°42'0 0.0
2017-Nov-10 19:00N 01°12' E 103°42'0 0.1
2017-Nov-10 18:30N 01°12' E 103°42'0 0.1
2017-Nov-10 17:57N 01°12' E 103°42'0 0.0
2017-Nov-10 17:30N 01°12' E 103°42'0 0.0
2017-Nov-10 16:54N 01°12' E 103°42'0 0.1
2017-Nov-10 16:30N 01°12' E 103°42'0 0.1
2017-Nov-10 15:54N 01°12' E 103°42'0 0.0
2017-Nov-10 15:30N 01°12' E 103°42'0 0.0
2017-Nov-10 14:57N 01°12' E 103°42'0 0.0
2017-Nov-10 14:30N 01°12' E 103°42'0 0.0
2017-Nov-10 12:06N 01°12' E 103°42'0 0.0
2017-Nov-10 11:57N 01°12' E 103°42'0 0.0
2017-Nov-10 11:24N 01°12' E 103°42'0 0.1
2017-Nov-10 10:57N 01°12' E 103°42'0 0.0
2017-Nov-10 10:24N 01°11' E 103°42'0 0.0
2017-Nov-10 10:00N 01°11' E 103°42'0 0.0
2017-Nov-10 09:30N 01°11' E 103°42'0 0.1
2017-Nov-10 08:54N 01°11' E 103°42'0 0.2
2017-Nov-10 08:30N 01°11' E 103°42'0 0.0
2017-Nov-10 08:00N 01°11' E 103°42'1 2.0
2017-Nov-10 07:30N 01°11' E 103°41'0 0.9
2017-Nov-10 07:00N 01°11' E 103°40'3 6.2
2017-Nov-10 06:30N 01°09' E 103°43'3 5.6
2017-Nov-10 06:00N 01°09' E 103°46'611.1
2017-Nov-10 05:30N 01°11' E 103°51'5 9.8
2017-Nov-10 05:00N 01°14' E 103°55'612.3
2017-Nov-10 04:30N 01°15' E 104°01'  
Track history (hours):
 
Tides and Currents Weather Stations Pressure Air Temp Water Temp Dewpoint Dewpoint Depression Visibility Wind Speed Wind Dir Waves Ship Positions

Ncc Rabigh

Last reported at 2017-Nov-11 00:02 UTC. Time now 2017-Nov-21 00:55 UTC.
Position N 01°18' E 103°20'.
Warning: this ship's position is 10 days out of date.

Length 183 m; draft 9 m.

Type: Ship (hazmat cat D). MMSI: 403575000.

Date/timePositionNaut miles runAvg speedWind from/ knotsBaromVisibWave heightAir tempDewpointWater temp
2017-Nov-11 00:02N 01°18' E 103°20'113.8
2017-Nov-10 23:59N 01°17' E 103°21'713.4
2017-Nov-10 23:29N 01°14' E 103°27'714.2
2017-Nov-10 23:00N 01°12' E 103°33'510.8
2017-Nov-10 22:30N 01°12' E 103°38'3 6.0
2017-Nov-10 21:57N 01°11' E 103°42'0 0.0
2017-Nov-10 21:30N 01°11' E 103°42'0 0.1
2017-Nov-10 21:00N 01°11' E 103°42'0 0.1
2017-Nov-10 20:30N 01°11' E 103°42'0 0.0
2017-Nov-10 19:57N 01°11' E 103°42'0 0.1
2017-Nov-10 19:30N 01°11' E 103°42'0 0.0
2017-Nov-10 19:00N 01°12' E 103°42'0 0.1
2017-Nov-10 18:30N 01°12' E 103°42'0 0.1
2017-Nov-10 17:57N 01°12' E 103°42'0 0.0
2017-Nov-10 17:30N 01°12' E 103°42'0 0.0
2017-Nov-10 16:54N 01°12' E 103°42'0 0.1
2017-Nov-10 16:30N 01°12' E 103°42'0 0.1
2017-Nov-10 15:54N 01°12' E 103°42'0 0.0
2017-Nov-10 15:30N 01°12' E 103°42'0 0.0
2017-Nov-10 14:57N 01°12' E 103°42'0 0.0
2017-Nov-10 14:30N 01°12' E 103°42'0 0.0
2017-Nov-10 12:06N 01°12' E 103°42'0 0.0
2017-Nov-10 11:57N 01°12' E 103°42'0 0.0
2017-Nov-10 11:24N 01°12' E 103°42'0 0.1
2017-Nov-10 10:57N 01°12' E 103°42'0 0.0
2017-Nov-10 10:24N 01°11' E 103°42'0 0.0
2017-Nov-10 10:00N 01°11' E 103°42'0 0.0
2017-Nov-10 09:30N 01°11' E 103°42'0 0.1
2017-Nov-10 08:54N 01°11' E 103°42'0 0.2
2017-Nov-10 08:30N 01°11' E 103°42'0 0.0
2017-Nov-10 08:00N 01°11' E 103°42'1 2.0
2017-Nov-10 07:30N 01°11' E 103°41'0 0.9
2017-Nov-10 07:00N 01°11' E 103°40'3 6.2
2017-Nov-10 06:30N 01°09' E 103°43'3 5.6
2017-Nov-10 06:00N 01°09' E 103°46'611.1
2017-Nov-10 05:30N 01°11' E 103°51'5 9.8
2017-Nov-10 05:00N 01°14' E 103°55'612.3
2017-Nov-10 04:30N 01°15' E 104°01'  

Dump ship's entire track history